sensor_id;sensor_type;location;lat;lon;timestamp;temperature;humidity
10642;DHT22;5369;49.586;8.646;2023-07-29T00:01:44;20.00;99.90
10642;DHT22;5369;49.586;8.646;2023-07-29T00:04:09;20.00;99.90
10642;DHT22;5369;49.586;8.646;2023-07-29T00:06:35;20.00;99.90
10642;DHT22;5369;49.586;8.646;2023-07-29T00:09:02;20.00;99.90
10642;DHT22;5369;49.586;8.646;2023-07-29T00:11:28;20.00;99.90
10642;DHT22;5369;49.586;8.646;2023-07-29T00:13:54;20.10;99.90
10642;DHT22;5369;49.586;8.646;2023-07-29T00:16:20;20.10;99.90
10642;DHT22;5369;49.586;8.646;2023-07-29T00:18:48;20.10;99.90
10642;DHT22;5369;49.586;8.646;2023-07-29T00:21:14;20.10;99.90
10642;DHT22;5369;49.586;8.646;2023-07-29T00:23:40;20.10;99.90
10642;DHT22;5369;49.586;8.646;2023-07-29T00:26:05;20.10;99.90
10642;DHT22;5369;49.586;8.646;2023-07-29T00:28:31;20.10;99.90
10642;DHT22;5369;49.586;8.646;2023-07-29T00:30:58;20.20;99.90
10642;DHT22;5369;49.586;8.646;2023-07-29T00:33:24;20.20;99.90
10642;DHT22;5369;49.586;8.646;2023-07-29T00:35:50;20.20;99.90
10642;DHT22;5369;49.586;8.646;2023-07-29T00:38:16;20.20;99.90
10642;DHT22;5369;49.586;8.646;2023-07-29T00:40:42;20.20;99.90
10642;DHT22;5369;49.586;8.646;2023-07-29T00:43:08;20.20;99.90
10642;DHT22;5369;49.586;8.646;2023-07-29T00:45:35;20.20;99.90
10642;DHT22;5369;49.586;8.646;2023-07-29T00:48:02;20.20;99.90
10642;DHT22;5369;49.586;8.646;2023-07-29T00:50:29;20.20;99.90
10642;DHT22;5369;49.586;8.646;2023-07-29T00:52:56;20.20;99.90
10642;DHT22;5369;49.586;8.646;2023-07-29T00:55:23;20.20;99.90
10642;DHT22;5369;49.586;8.646;2023-07-29T00:57:50;20.20;99.90
10642;DHT22;5369;49.586;8.646;2023-07-29T01:00:18;20.20;99.90
10642;DHT22;5369;49.586;8.646;2023-07-29T01:02:44;20.10;99.90
10642;DHT22;5369;49.586;8.646;2023-07-29T01:05:13;20.10;99.90
10642;DHT22;5369;49.586;8.646;2023-07-29T01:07:59;20.10;99.90
10642;DHT22;5369;49.586;8.646;2023-07-29T01:13:37;20.10;99.90
10642;DHT22;5369;49.586;8.646;2023-07-29T01:16:26;20.10;99.90
10642;DHT22;5369;49.586;8.646;2023-07-29T01:18:55;20.00;99.90
10642;DHT22;5369;49.586;8.646;2023-07-29T01:21:21;20.00;99.90
10642;DHT22;5369;49.586;8.646;2023-07-29T01:23:47;20.10;99.90
10642;DHT22;5369;49.586;8.646;2023-07-29T01:26:17;20.10;99.90
10642;DHT22;5369;49.586;8.646;2023-07-29T01:28:44;20.10;99.90
10642;DHT22;5369;49.586;8.646;2023-07-29T01:31:11;20.10;99.90
10642;DHT22;5369;49.586;8.646;2023-07-29T01:33:58;20.10;99.90
10642;DHT22;5369;49.586;8.646;2023-07-29T01:36:28;20.10;99.90
10642;DHT22;5369;49.586;8.646;2023-07-29T01:38:56;20.10;99.90
10642;DHT22;5369;49.586;8.646;2023-07-29T01:41:24;20.10;99.90
10642;DHT22;5369;49.586;8.646;2023-07-29T01:43:50;20.10;99.90
10642;DHT22;5369;49.586;8.646;2023-07-29T01:46:17;20.10;99.90
10642;DHT22;5369;49.586;8.646;2023-07-29T01:48:43;20.10;99.90
10642;DHT22;5369;49.586;8.646;2023-07-29T01:51:12;20.10;99.90
10642;DHT22;5369;49.586;8.646;2023-07-29T01:53:38;20.10;99.90
10642;DHT22;5369;49.586;8.646;2023-07-29T01:56:04;20.00;99.90
10642;DHT22;5369;49.586;8.646;2023-07-29T01:58:30;20.00;99.90
10642;DHT22;5369;49.586;8.646;2023-07-29T02:00:56;20.00;99.90
10642;DHT22;5369;49.586;8.646;2023-07-29T02:03:21;20.00;99.90
10642;DHT22;5369;49.586;8.646;2023-07-29T02:05:47;20.00;99.90
10642;DHT22;5369;49.586;8.646;2023-07-29T02:08:13;20.00;99.90
10642;DHT22;5369;49.586;8.646;2023-07-29T02:10:39;20.00;99.90
10642;DHT22;5369;49.586;8.646;2023-07-29T02:13:05;20.00;99.90
10642;DHT22;5369;49.586;8.646;2023-07-29T02:15:31;20.00;99.90
10642;DHT22;5369;49.586;8.646;2023-07-29T02:17:57;20.00;99.90
10642;DHT22;5369;49.586;8.646;2023-07-29T02:20:24;20.00;99.90
10642;DHT22;5369;49.586;8.646;2023-07-29T02:22:51;20.00;99.90
10642;DHT22;5369;49.586;8.646;2023-07-29T02:25:16;20.00;99.90
10642;DHT22;5369;49.586;8.646;2023-07-29T02:27:43;20.10;99.90
10642;DHT22;5369;49.586;8.646;2023-07-29T02:30:09;20.10;99.90
10642;DHT22;5369;49.586;8.646;2023-07-29T02:32:35;20.00;99.90
10642;DHT22;5369;49.586;8.646;2023-07-29T02:35:01;20.10;99.90
10642;DHT22;5369;49.586;8.646;2023-07-29T02:37:27;20.00;99.90
10642;DHT22;5369;49.586;8.646;2023-07-29T02:39:53;20.10;99.90
10642;DHT22;5369;49.586;8.646;2023-07-29T02:42:19;20.10;99.90
10642;DHT22;5369;49.586;8.646;2023-07-29T02:44:45;20.00;99.90
10642;DHT22;5369;49.586;8.646;2023-07-29T02:47:10;20.00;99.90
10642;DHT22;5369;49.586;8.646;2023-07-29T02:49:36;20.00;99.90
10642;DHT22;5369;49.586;8.646;2023-07-29T02:52:02;20.10;99.90
10642;DHT22;5369;49.586;8.646;2023-07-29T02:54:28;20.00;99.90
10642;DHT22;5369;49.586;8.646;2023-07-29T02:56:54;20.10;99.90
10642;DHT22;5369;49.586;8.646;2023-07-29T02:59:20;20.10;99.90
10642;DHT22;5369;49.586;8.646;2023-07-29T03:01:46;20.10;99.90
10642;DHT22;5369;49.586;8.646;2023-07-29T03:04:11;20.10;99.90
10642;DHT22;5369;49.586;8.646;2023-07-29T03:06:40;20.00;99.90
10642;DHT22;5369;49.586;8.646;2023-07-29T03:09:06;20.00;99.90
10642;DHT22;5369;49.586;8.646;2023-07-29T03:11:31;20.00;99.90
10642;DHT22;5369;49.586;8.646;2023-07-29T03:13:57;20.00;99.90
10642;DHT22;5369;49.586;8.646;2023-07-29T03:16:24;20.00;99.90
10642;DHT22;5369;49.586;8.646;2023-07-29T03:18:53;20.00;99.90
10642;DHT22;5369;49.586;8.646;2023-07-29T03:21:19;20.00;99.90
10642;DHT22;5369;49.586;8.646;2023-07-29T03:23:45;20.00;99.90
10642;DHT22;5369;49.586;8.646;2023-07-29T03:26:10;20.00;99.90
10642;DHT22;5369;49.586;8.646;2023-07-29T03:28:39;20.00;99.90
10642;DHT22;5369;49.586;8.646;2023-07-29T03:31:05;19.90;99.90
10642;DHT22;5369;49.586;8.646;2023-07-29T03:33:32;19.90;99.90
10642;DHT22;5369;49.586;8.646;2023-07-29T03:35:57;19.90;99.90
10642;DHT22;5369;49.586;8.646;2023-07-29T03:38:23;19.90;99.90
10642;DHT22;5369;49.586;8.646;2023-07-29T03:40:50;19.90;99.90
10642;DHT22;5369;49.586;8.646;2023-07-29T03:43:16;19.90;99.90
10642;DHT22;5369;49.586;8.646;2023-07-29T03:45:43;19.90;99.90
10642;DHT22;5369;49.586;8.646;2023-07-29T03:48:08;19.90;99.90
10642;DHT22;5369;49.586;8.646;2023-07-29T03:50:35;20.00;99.90
10642;DHT22;5369;49.586;8.646;2023-07-29T03:53:02;19.90;99.90
10642;DHT22;5369;49.586;8.646;2023-07-29T03:55:28;20.00;99.90
10642;DHT22;5369;49.586;8.646;2023-07-29T03:57:56;20.00;99.90
10642;DHT22;5369;49.586;8.646;2023-07-29T04:00:23;20.00;99.90
10642;DHT22;5369;49.586;8.646;2023-07-29T04:02:49;20.00;99.90
10642;DHT22;5369;49.586;8.646;2023-07-29T04:05:15;20.00;99.90
10642;DHT22;5369;49.586;8.646;2023-07-29T04:07:41;20.00;99.90
10642;DHT22;5369;49.586;8.646;2023-07-29T04:10:07;20.00;99.90
10642;DHT22;5369;49.586;8.646;2023-07-29T04:12:33;20.00;99.90
10642;DHT22;5369;49.586;8.646;2023-07-29T04:14:59;20.00;99.90
10642;DHT22;5369;49.586;8.646;2023-07-29T04:17:24;20.00;99.90
10642;DHT22;5369;49.586;8.646;2023-07-29T04:19:50;20.00;99.90
10642;DHT22;5369;49.586;8.646;2023-07-29T04:22:17;20.10;99.90
10642;DHT22;5369;49.586;8.646;2023-07-29T04:24:43;20.00;99.90
10642;DHT22;5369;49.586;8.646;2023-07-29T04:27:09;20.10;99.90
10642;DHT22;5369;49.586;8.646;2023-07-29T04:29:35;20.10;99.90
10642;DHT22;5369;49.586;8.646;2023-07-29T04:32:02;20.10;99.90
10642;DHT22;5369;49.586;8.646;2023-07-29T04:34:28;20.10;99.90
10642;DHT22;5369;49.586;8.646;2023-07-29T04:36:54;20.20;99.90
10642;DHT22;5369;49.586;8.646;2023-07-29T04:39:20;20.20;99.90
10642;DHT22;5369;49.586;8.646;2023-07-29T04:41:46;20.20;99.90
10642;DHT22;5369;49.586;8.646;2023-07-29T04:44:11;20.20;99.90
10642;DHT22;5369;49.586;8.646;2023-07-29T04:46:37;20.20;99.90
10642;DHT22;5369;49.586;8.646;2023-07-29T04:49:04;20.20;99.90
10642;DHT22;5369;49.586;8.646;2023-07-29T04:51:30;20.20;99.90
10642;DHT22;5369;49.586;8.646;2023-07-29T04:53:58;20.20;99.90
10642;DHT22;5369;49.586;8.646;2023-07-29T04:56:24;20.20;99.90
10642;DHT22;5369;49.586;8.646;2023-07-29T04:58:49;20.20;99.90
10642;DHT22;5369;49.586;8.646;2023-07-29T05:01:15;20.30;99.90
10642;DHT22;5369;49.586;8.646;2023-07-29T05:03:41;20.30;99.90
10642;DHT22;5369;49.586;8.646;2023-07-29T05:06:07;20.30;99.90
10642;DHT22;5369;49.586;8.646;2023-07-29T05:08:34;20.30;99.90
10642;DHT22;5369;49.586;8.646;2023-07-29T05:11:00;20.30;99.90
10642;DHT22;5369;49.586;8.646;2023-07-29T05:13:26;20.20;99.90
10642;DHT22;5369;49.586;8.646;2023-07-29T05:15:52;20.20;99.90
10642;DHT22;5369;49.586;8.646;2023-07-29T05:18:18;20.20;99.90
10642;DHT22;5369;49.586;8.646;2023-07-29T05:20:44;20.10;99.90
10642;DHT22;5369;49.586;8.646;2023-07-29T05:23:10;20.10;99.90
10642;DHT22;5369;49.586;8.646;2023-07-29T05:25:36;20.20;99.90
10642;DHT22;5369;49.586;8.646;2023-07-29T05:28:02;20.20;99.90
10642;DHT22;5369;49.586;8.646;2023-07-29T05:30:29;20.10;99.90
10642;DHT22;5369;49.586;8.646;2023-07-29T05:32:57;20.10;99.90
10642;DHT22;5369;49.586;8.646;2023-07-29T05:35:24;20.10;99.90
10642;DHT22;5369;49.586;8.646;2023-07-29T05:37:50;20.10;99.90
10642;DHT22;5369;49.586;8.646;2023-07-29T05:40:16;20.20;99.90
10642;DHT22;5369;49.586;8.646;2023-07-29T05:42:42;20.10;99.90
10642;DHT22;5369;49.586;8.646;2023-07-29T05:45:09;20.20;99.90
10642;DHT22;5369;49.586;8.646;2023-07-29T05:47:36;20.20;99.90
10642;DHT22;5369;49.586;8.646;2023-07-29T05:50:03;20.20;99.90
10642;DHT22;5369;49.586;8.646;2023-07-29T05:52:33;20.10;99.90
10642;DHT22;5369;49.586;8.646;2023-07-29T05:54:59;20.10;99.90
10642;DHT22;5369;49.586;8.646;2023-07-29T05:57:24;20.10;99.90
10642;DHT22;5369;49.586;8.646;2023-07-29T05:59:50;20.10;99.90
10642;DHT22;5369;49.586;8.646;2023-07-29T06:02:16;20.20;99.90
10642;DHT22;5369;49.586;8.646;2023-07-29T06:04:42;20.20;99.90
10642;DHT22;5369;49.586;8.646;2023-07-29T06:07:08;20.20;99.90
10642;DHT22;5369;49.586;8.646;2023-07-29T06:09:34;20.10;99.90
10642;DHT22;5369;49.586;8.646;2023-07-29T06:12:00;20.20;99.90
10642;DHT22;5369;49.586;8.646;2023-07-29T06:14:26;20.20;99.90
10642;DHT22;5369;49.586;8.646;2023-07-29T06:16:52;20.30;99.90
10642;DHT22;5369;49.586;8.646;2023-07-29T06:19:19;20.40;99.90
10642;DHT22;5369;49.586;8.646;2023-07-29T06:21:45;20.50;99.90
10642;DHT22;5369;49.586;8.646;2023-07-29T06:24:11;20.60;99.90
10642;DHT22;5369;49.586;8.646;2023-07-29T06:26:37;20.70;99.90
10642;DHT22;5369;49.586;8.646;2023-07-29T06:29:03;20.80;99.90
10642;DHT22;5369;49.586;8.646;2023-07-29T06:31:28;20.70;99.90
10642;DHT22;5369;49.586;8.646;2023-07-29T06:33:55;20.70;99.90
10642;DHT22;5369;49.586;8.646;2023-07-29T06:36:21;20.80;99.90
10642;DHT22;5369;49.586;8.646;2023-07-29T06:38:47;20.80;99.90
10642;DHT22;5369;49.586;8.646;2023-07-29T06:41:13;20.80;99.90
10642;DHT22;5369;49.586;8.646;2023-07-29T06:43:38;20.80;99.90
10642;DHT22;5369;49.586;8.646;2023-07-29T06:46:04;21.00;99.90
10642;DHT22;5369;49.586;8.646;2023-07-29T06:48:30;21.10;99.90
10642;DHT22;5369;49.586;8.646;2023-07-29T06:50:56;21.10;99.90
10642;DHT22;5369;49.586;8.646;2023-07-29T06:53:26;21.20;99.90
10642;DHT22;5369;49.586;8.646;2023-07-29T06:55:52;21.20;99.90
10642;DHT22;5369;49.586;8.646;2023-07-29T06:58:18;21.30;99.90
10642;DHT22;5369;49.586;8.646;2023-07-29T07:00:44;21.30;99.90
10642;DHT22;5369;49.586;8.646;2023-07-29T07:03:10;21.40;99.90
10642;DHT22;5369;49.586;8.646;2023-07-29T07:05:36;21.40;99.90
10642;DHT22;5369;49.586;8.646;2023-07-29T07:08:01;21.50;99.90
10642;DHT22;5369;49.586;8.646;2023-07-29T07:10:27;21.60;99.90
10642;DHT22;5369;49.586;8.646;2023-07-29T07:12:53;21.80;99.90
10642;DHT22;5369;49.586;8.646;2023-07-29T07:15:19;21.80;99.90
10642;DHT22;5369;49.586;8.646;2023-07-29T07:17:44;22.00;99.90
10642;DHT22;5369;49.586;8.646;2023-07-29T07:20:11;22.00;99.90
10642;DHT22;5369;49.586;8.646;2023-07-29T07:22:37;22.10;99.90
10642;DHT22;5369;49.586;8.646;2023-07-29T07:25:03;22.20;99.90
10642;DHT22;5369;49.586;8.646;2023-07-29T07:27:29;22.30;99.90
10642;DHT22;5369;49.586;8.646;2023-07-29T07:29:55;22.40;99.90
10642;DHT22;5369;49.586;8.646;2023-07-29T07:32:20;22.40;99.90
10642;DHT22;5369;49.586;8.646;2023-07-29T07:34:46;22.50;99.90
10642;DHT22;5369;49.586;8.646;2023-07-29T07:37:12;22.50;99.90
10642;DHT22;5369;49.586;8.646;2023-07-29T07:39:38;22.50;99.90
10642;DHT22;5369;49.586;8.646;2023-07-29T07:42:03;22.60;99.90
10642;DHT22;5369;49.586;8.646;2023-07-29T07:44:29;22.60;99.90
10642;DHT22;5369;49.586;8.646;2023-07-29T07:46:55;22.40;99.90
10642;DHT22;5369;49.586;8.646;2023-07-29T07:49:22;22.30;99.90
10642;DHT22;5369;49.586;8.646;2023-07-29T07:51:47;22.20;99.90
10642;DHT22;5369;49.586;8.646;2023-07-29T07:54:13;22.10;99.90
10642;DHT22;5369;49.586;8.646;2023-07-29T07:56:39;22.10;99.90
10642;DHT22;5369;49.586;8.646;2023-07-29T07:59:04;22.00;99.90
10642;DHT22;5369;49.586;8.646;2023-07-29T08:01:38;21.80;99.90
10642;DHT22;5369;49.586;8.646;2023-07-29T08:04:04;21.80;99.90
10642;DHT22;5369;49.586;8.646;2023-07-29T08:06:31;21.80;99.90
10642;DHT22;5369;49.586;8.646;2023-07-29T08:08:57;21.80;99.90
10642;DHT22;5369;49.586;8.646;2023-07-29T08:11:23;21.80;99.90
10642;DHT22;5369;49.586;8.646;2023-07-29T08:13:48;21.80;99.90
10642;DHT22;5369;49.586;8.646;2023-07-29T08:16:14;21.70;99.90
10642;DHT22;5369;49.586;8.646;2023-07-29T08:18:40;21.60;99.90
10642;DHT22;5369;49.586;8.646;2023-07-29T08:21:06;21.60;99.90
10642;DHT22;5369;49.586;8.646;2023-07-29T08:23:33;21.60;99.90
10642;DHT22;5369;49.586;8.646;2023-07-29T08:26:03;21.70;99.90
10642;DHT22;5369;49.586;8.646;2023-07-29T08:28:31;21.80;99.90
10642;DHT22;5369;49.586;8.646;2023-07-29T08:30:57;21.90;99.90
10642;DHT22;5369;49.586;8.646;2023-07-29T08:33:23;22.00;99.90
10642;DHT22;5369;49.586;8.646;2023-07-29T08:35:49;22.00;99.90
10642;DHT22;5369;49.586;8.646;2023-07-29T08:38:15;22.00;99.90
10642;DHT22;5369;49.586;8.646;2023-07-29T08:40:57;22.10;99.90
10642;DHT22;5369;49.586;8.646;2023-07-29T08:43:29;22.30;99.90
10642;DHT22;5369;49.586;8.646;2023-07-29T08:46:00;22.50;99.90
10642;DHT22;5369;49.586;8.646;2023-07-29T08:48:34;22.50;99.90
10642;DHT22;5369;49.586;8.646;2023-07-29T08:51:03;22.60;99.90
10642;DHT22;5369;49.586;8.646;2023-07-29T08:53:30;22.70;99.90
10642;DHT22;5369;49.586;8.646;2023-07-29T08:55:56;22.70;99.90
10642;DHT22;5369;49.586;8.646;2023-07-29T08:58:23;22.80;99.90
10642;DHT22;5369;49.586;8.646;2023-07-29T09:00:50;23.00;99.90
10642;DHT22;5369;49.586;8.646;2023-07-29T09:03:16;23.10;99.90
10642;DHT22;5369;49.586;8.646;2023-07-29T09:05:41;23.20;99.90
10642;DHT22;5369;49.586;8.646;2023-07-29T09:08:07;23.40;99.90
10642;DHT22;5369;49.586;8.646;2023-07-29T09:10:37;23.50;99.90
10642;DHT22;5369;49.586;8.646;2023-07-29T09:13:03;23.60;99.90
10642;DHT22;5369;49.586;8.646;2023-07-29T09:15:30;23.70;99.90
10642;DHT22;5369;49.586;8.646;2023-07-29T09:17:57;23.80;99.90
10642;DHT22;5369;49.586;8.646;2023-07-29T09:20:27;24.00;99.90
10642;DHT22;5369;49.586;8.646;2023-07-29T09:22:55;24.00;99.90
10642;DHT22;5369;49.586;8.646;2023-07-29T09:25:25;24.00;99.90
10642;DHT22;5369;49.586;8.646;2023-07-29T09:27:51;24.00;99.90
10642;DHT22;5369;49.586;8.646;2023-07-29T09:30:17;24.00;99.90
10642;DHT22;5369;49.586;8.646;2023-07-29T09:32:57;24.00;99.90
10642;DHT22;5369;49.586;8.646;2023-07-29T09:35:32;23.90;99.90
10642;DHT22;5369;49.586;8.646;2023-07-29T09:37:58;23.90;99.90
10642;DHT22;5369;49.586;8.646;2023-07-29T09:40:24;23.90;99.90
10642;DHT22;5369;49.586;8.646;2023-07-29T09:42:52;23.90;99.90
10642;DHT22;5369;49.586;8.646;2023-07-29T09:45:22;23.90;99.90
10642;DHT22;5369;49.586;8.646;2023-07-29T09:47:49;24.10;99.90
10642;DHT22;5369;49.586;8.646;2023-07-29T09:50:15;24.30;99.90
10642;DHT22;5369;49.586;8.646;2023-07-29T09:52:41;24.40;99.90
10642;DHT22;5369;49.586;8.646;2023-07-29T09:55:09;24.40;99.90
10642;DHT22;5369;49.586;8.646;2023-07-29T09:57:35;24.40;99.90
10642;DHT22;5369;49.586;8.646;2023-07-29T10:00:01;24.30;99.90
10642;DHT22;5369;49.586;8.646;2023-07-29T10:02:31;24.30;99.90
10642;DHT22;5369;49.586;8.646;2023-07-29T10:04:57;24.40;99.90
10642;DHT22;5369;49.586;8.646;2023-07-29T10:07:24;24.50;99.90
10642;DHT22;5369;49.586;8.646;2023-07-29T10:09:52;24.60;99.90
10642;DHT22;5369;49.586;8.646;2023-07-29T10:12:18;24.60;99.90
10642;DHT22;5369;49.586;8.646;2023-07-29T10:14:45;24.70;99.90
10642;DHT22;5369;49.586;8.646;2023-07-29T10:17:15;24.70;99.90
10642;DHT22;5369;49.586;8.646;2023-07-29T10:19:41;24.80;99.90
10642;DHT22;5369;49.586;8.646;2023-07-29T10:22:09;24.80;99.90
10642;DHT22;5369;49.586;8.646;2023-07-29T10:24:36;24.70;99.90
10642;DHT22;5369;49.586;8.646;2023-07-29T10:27:06;24.50;99.90
10642;DHT22;5369;49.586;8.646;2023-07-29T10:29:38;24.50;99.90
10642;DHT22;5369;49.586;8.646;2023-07-29T10:32:05;24.50;99.90
10642;DHT22;5369;49.586;8.646;2023-07-29T10:34:32;24.50;99.90
10642;DHT22;5369;49.586;8.646;2023-07-29T10:36:59;24.50;99.90
10642;DHT22;5369;49.586;8.646;2023-07-29T10:39:26;24.70;99.90
10642;DHT22;5369;49.586;8.646;2023-07-29T10:41:58;25.00;99.90
10642;DHT22;5369;49.586;8.646;2023-07-29T10:47:15;25.50;99.90
10642;DHT22;5369;49.586;8.646;2023-07-29T10:49:41;25.60;99.90
10642;DHT22;5369;49.586;8.646;2023-07-29T10:52:07;25.70;99.90
10642;DHT22;5369;49.586;8.646;2023-07-29T10:54:43;25.90;99.90
10642;DHT22;5369;49.586;8.646;2023-07-29T10:57:13;26.00;99.90
10642;DHT22;5369;49.586;8.646;2023-07-29T10:59:40;26.10;99.90
10642;DHT22;5369;49.586;8.646;2023-07-29T11:02:29;26.10;99.90
10642;DHT22;5369;49.586;8.646;2023-07-29T11:04:56;25.90;99.90
10642;DHT22;5369;49.586;8.646;2023-07-29T11:07:23;25.70;99.90
10642;DHT22;5369;49.586;8.646;2023-07-29T11:09:54;25.60;99.90
10642;DHT22;5369;49.586;8.646;2023-07-29T11:17:40;25.60;99.90
10642;DHT22;5369;49.586;8.646;2023-07-29T11:20:06;25.70;99.90
10642;DHT22;5369;49.586;8.646;2023-07-29T11:22:36;25.70;99.90
10642;DHT22;5369;49.586;8.646;2023-07-29T11:25:02;25.80;99.90
10642;DHT22;5369;49.586;8.646;2023-07-29T11:27:28;26.00;99.90
10642;DHT22;5369;49.586;8.646;2023-07-29T11:29:58;25.90;99.90
10642;DHT22;5369;49.586;8.646;2023-07-29T11:32:25;25.80;99.90
10642;DHT22;5369;49.586;8.646;2023-07-29T11:34:51;25.70;99.90
10642;DHT22;5369;49.586;8.646;2023-07-29T11:37:17;25.50;99.90
10642;DHT22;5369;49.586;8.646;2023-07-29T11:39:43;25.50;99.90
10642;DHT22;5369;49.586;8.646;2023-07-29T11:42:16;25.90;99.90
10642;DHT22;5369;49.586;8.646;2023-07-29T11:44:42;26.20;92.60
10642;DHT22;5369;49.586;8.646;2023-07-29T11:47:11;26.60;89.10
10642;DHT22;5369;49.586;8.646;2023-07-29T11:49:41;27.00;83.70
10642;DHT22;5369;49.586;8.646;2023-07-29T11:52:08;27.10;83.40
10642;DHT22;5369;49.586;8.646;2023-07-29T11:54:38;27.60;80.50
10642;DHT22;5369;49.586;8.646;2023-07-29T11:57:06;28.20;73.70
10642;DHT22;5369;49.586;8.646;2023-07-29T11:59:37;28.70;71.00
10642;DHT22;5369;49.586;8.646;2023-07-29T12:02:10;29.00;68.50
10642;DHT22;5369;49.586;8.646;2023-07-29T12:04:38;28.90;62.00
10642;DHT22;5369;49.586;8.646;2023-07-29T12:07:04;28.80;61.80
10642;DHT22;5369;49.586;8.646;2023-07-29T12:09:30;28.60;63.10
10642;DHT22;5369;49.586;8.646;2023-07-29T12:11:56;28.70;65.60
10642;DHT22;5369;49.586;8.646;2023-07-29T12:14:25;28.60;65.10
10642;DHT22;5369;49.586;8.646;2023-07-29T12:16:51;28.50;65.30
10642;DHT22;5369;49.586;8.646;2023-07-29T12:19:17;28.40;66.40
10642;DHT22;5369;49.586;8.646;2023-07-29T12:21:43;28.30;65.90
10642;DHT22;5369;49.586;8.646;2023-07-29T12:24:12;28.20;65.00
10642;DHT22;5369;49.586;8.646;2023-07-29T12:26:38;28.50;63.90
10642;DHT22;5369;49.586;8.646;2023-07-29T12:29:17;29.40;63.90
10642;DHT22;5369;49.586;8.646;2023-07-29T12:31:45;30.10;58.70
10642;DHT22;5369;49.586;8.646;2023-07-29T12:34:21;30.60;57.50
10642;DHT22;5369;49.586;8.646;2023-07-29T12:36:49;30.90;56.10
10642;DHT22;5369;49.586;8.646;2023-07-29T12:39:22;30.30;54.70
10642;DHT22;5369;49.586;8.646;2023-07-29T12:41:50;29.60;55.80
10642;DHT22;5369;49.586;8.646;2023-07-29T12:44:16;29.50;56.00
10642;DHT22;5369;49.586;8.646;2023-07-29T12:46:42;29.50;55.90
10642;DHT22;5369;49.586;8.646;2023-07-29T12:49:09;29.80;55.00
10642;DHT22;5369;49.586;8.646;2023-07-29T12:51:35;29.90;54.00
10642;DHT22;5369;49.586;8.646;2023-07-29T12:54:04;29.60;54.10
10642;DHT22;5369;49.586;8.646;2023-07-29T12:56:31;29.20;53.70
10642;DHT22;5369;49.586;8.646;2023-07-29T12:58:58;29.30;52.10
10642;DHT22;5369;49.586;8.646;2023-07-29T13:01:24;29.80;52.40
10642;DHT22;5369;49.586;8.646;2023-07-29T13:03:50;30.90;51.90
10642;DHT22;5369;49.586;8.646;2023-07-29T13:06:16;31.70;51.00
10642;DHT22;5369;49.586;8.646;2023-07-29T13:08:42;32.20;49.60
10642;DHT22;5369;49.586;8.646;2023-07-29T13:11:08;32.30;48.60
10642;DHT22;5369;49.586;8.646;2023-07-29T13:13:34;32.70;48.30
10642;DHT22;5369;49.586;8.646;2023-07-29T13:16:00;33.10;47.50
10642;DHT22;5369;49.586;8.646;2023-07-29T13:18:27;33.20;47.60
10642;DHT22;5369;49.586;8.646;2023-07-29T13:20:54;33.30;46.40
10642;DHT22;5369;49.586;8.646;2023-07-29T13:23:19;33.60;46.70
10642;DHT22;5369;49.586;8.646;2023-07-29T13:25:45;33.90;45.90
10642;DHT22;5369;49.586;8.646;2023-07-29T13:28:12;33.80;45.80
10642;DHT22;5369;49.586;8.646;2023-07-29T13:30:40;33.20;45.90
10642;DHT22;5369;49.586;8.646;2023-07-29T13:33:07;32.50;47.50
10642;DHT22;5369;49.586;8.646;2023-07-29T13:35:33;32.10;47.00
10642;DHT22;5369;49.586;8.646;2023-07-29T13:37:59;31.60;47.90
10642;DHT22;5369;49.586;8.646;2023-07-29T13:40:25;31.40;48.90
10642;DHT22;5369;49.586;8.646;2023-07-29T13:42:50;31.10;49.30
10642;DHT22;5369;49.586;8.646;2023-07-29T13:45:17;30.90;49.40
10642;DHT22;5369;49.586;8.646;2023-07-29T13:47:43;31.10;49.00
10642;DHT22;5369;49.586;8.646;2023-07-29T13:50:09;31.40;48.60
10642;DHT22;5369;49.586;8.646;2023-07-29T13:52:36;32.10;49.50
10642;DHT22;5369;49.586;8.646;2023-07-29T13:55:02;33.30;48.00
10642;DHT22;5369;49.586;8.646;2023-07-29T13:57:28;34.50;47.00
10642;DHT22;5369;49.586;8.646;2023-07-29T13:59:54;35.20;45.10
10642;DHT22;5369;49.586;8.646;2023-07-29T14:02:20;35.20;45.00
10642;DHT22;5369;49.586;8.646;2023-07-29T14:04:45;35.60;44.20
10642;DHT22;5369;49.586;8.646;2023-07-29T14:07:11;34.40;44.90
10642;DHT22;5369;49.586;8.646;2023-07-29T14:09:37;33.60;46.30
10642;DHT22;5369;49.586;8.646;2023-07-29T14:12:04;33.60;46.90
10642;DHT22;5369;49.586;8.646;2023-07-29T14:14:30;32.80;46.90
10642;DHT22;5369;49.586;8.646;2023-07-29T14:16:56;32.10;47.10
10642;DHT22;5369;49.586;8.646;2023-07-29T14:19:23;31.30;48.20
10642;DHT22;5369;49.586;8.646;2023-07-29T14:21:49;31.30;49.20
10642;DHT22;5369;49.586;8.646;2023-07-29T14:24:14;32.60;48.20
10642;DHT22;5369;49.586;8.646;2023-07-29T14:26:41;33.50;46.20
10642;DHT22;5369;49.586;8.646;2023-07-29T14:29:07;34.20;46.00
10642;DHT22;5369;49.586;8.646;2023-07-29T14:31:32;34.60;44.40
10642;DHT22;5369;49.586;8.646;2023-07-29T14:33:58;35.00;45.00
10642;DHT22;5369;49.586;8.646;2023-07-29T14:36:25;35.40;45.00
10642;DHT22;5369;49.586;8.646;2023-07-29T14:38:51;35.30;44.50
10642;DHT22;5369;49.586;8.646;2023-07-29T14:41:17;34.80;44.00
10642;DHT22;5369;49.586;8.646;2023-07-29T14:43:43;33.90;44.50
10642;DHT22;5369;49.586;8.646;2023-07-29T14:46:08;32.80;46.40
10642;DHT22;5369;49.586;8.646;2023-07-29T14:48:34;32.30;46.60
10642;DHT22;5369;49.586;8.646;2023-07-29T14:51:00;32.80;46.50
10642;DHT22;5369;49.586;8.646;2023-07-29T14:53:25;33.70;46.10
10642;DHT22;5369;49.586;8.646;2023-07-29T14:55:51;34.30;45.20
10642;DHT22;5369;49.586;8.646;2023-07-29T14:58:17;34.60;44.40
10642;DHT22;5369;49.586;8.646;2023-07-29T15:00:43;33.90;44.60
10642;DHT22;5369;49.586;8.646;2023-07-29T15:03:09;32.90;45.70
10642;DHT22;5369;49.586;8.646;2023-07-29T15:05:34;32.20;47.20
10642;DHT22;5369;49.586;8.646;2023-07-29T15:08:00;31.70;47.90
10642;DHT22;5369;49.586;8.646;2023-07-29T15:10:26;31.10;49.20
10642;DHT22;5369;49.586;8.646;2023-07-29T15:12:52;31.20;49.30
10642;DHT22;5369;49.586;8.646;2023-07-29T15:15:18;32.10;48.10
10642;DHT22;5369;49.586;8.646;2023-07-29T15:17:44;33.20;47.30
10642;DHT22;5369;49.586;8.646;2023-07-29T15:20:10;34.00;46.20
10642;DHT22;5369;49.586;8.646;2023-07-29T15:22:36;34.20;45.20
10642;DHT22;5369;49.586;8.646;2023-07-29T15:25:02;34.60;44.80
10642;DHT22;5369;49.586;8.646;2023-07-29T15:27:29;34.50;45.10
10642;DHT22;5369;49.586;8.646;2023-07-29T15:29:55;33.40;45.60
10642;DHT22;5369;49.586;8.646;2023-07-29T15:32:21;32.40;47.20
10642;DHT22;5369;49.586;8.646;2023-07-29T15:34:48;31.30;48.10
10642;DHT22;5369;49.586;8.646;2023-07-29T15:37:14;30.70;48.70
10642;DHT22;5369;49.586;8.646;2023-07-29T15:39:40;31.50;48.90
10642;DHT22;5369;49.586;8.646;2023-07-29T15:42:07;32.50;47.70
10642;DHT22;5369;49.586;8.646;2023-07-29T15:44:32;33.20;47.30
10642;DHT22;5369;49.586;8.646;2023-07-29T15:46:58;32.80;47.30
10642;DHT22;5369;49.586;8.646;2023-07-29T15:49:24;32.20;48.10
10642;DHT22;5369;49.586;8.646;2023-07-29T15:51:50;32.60;47.30
10642;DHT22;5369;49.586;8.646;2023-07-29T15:54:17;33.20;47.00